Time;durP1;ratioP1;P1;durP2;ratioP2;P2;SDS_P1;SDS_P2;PMS_P1;PMS_P2;Temp;Humidity;BMP_temperature;BMP_pressure;BME280_temperature;BME280_humidity;BME280_pressure;Samples;Min_cycle;Max_cycle;Signal;HPM_P1;HPM_P2
2020/12/23 00:01:02;;;;;;;8.07;5.13;;;;;16.20;101181.00;;;;5079945;28;20222;-79
2020/12/23 00:03:29;;;;;;;12.13;6.05;;;;;16.20;101191.00;;;;5088263;28;20213;-79
2020/12/23 00:05:56;;;;;;;7.10;5.18;;;;;16.20;101190.00;;;;5088766;28;20942;-79
2020/12/23 00:08:22;;;;;;;9.73;5.30;;;;;16.20;101198.00;;;;5087997;28;20202;-79
2020/12/23 00:10:49;;;;;;;10.55;5.30;;;;;16.10;101199.00;;;;5087580;28;20198;-79
2020/12/23 00:13:16;;;;;;;11.43;6.05;;;;;16.20;101196.00;;;;5088443;28;20550;-79
2020/12/23 00:15:43;;;;;;;7.63;5.43;;;;;16.10;101190.00;;;;5088221;28;20750;-79
2020/12/23 00:18:10;;;;;;;10.77;6.05;;;;;16.20;101204.00;;;;5088016;28;20198;-79
2020/12/23 00:20:37;;;;;;;8.45;5.85;;;;;16.20;101208.00;;;;5088245;28;20195;-79
2020/12/23 00:23:04;;;;;;;7.00;4.93;;;;;16.10;101197.00;;;;5088532;28;20671;-78
2020/12/23 00:25:30;;;;;;;7.70;5.45;;;;;16.20;101203.00;;;;5088203;28;20221;-79
2020/12/23 00:27:57;;;;;;;9.23;5.95;;;;;16.10;101196.00;;;;5087681;28;20764;-79
2020/12/23 00:30:24;;;;;;;8.45;5.05;;;;;16.10;101187.00;;;;5088503;28;20203;-78
2020/12/23 00:32:51;;;;;;;9.88;5.80;;;;;16.10;101183.00;;;;5087882;28;20731;-79
2020/12/23 00:35:18;;;;;;;9.57;5.28;;;;;16.10;101189.00;;;;5087840;28;20609;-79
2020/12/23 00:37:45;;;;;;;8.73;5.35;;;;;16.10;101186.00;;;;5088175;28;20205;-79
2020/12/23 00:40:12;;;;;;;10.13;6.28;;;;;16.20;101185.00;;;;5088153;28;20206;-79
2020/12/23 00:42:38;;;;;;;7.68;4.95;;;;;16.20;101173.00;;;;5087748;28;20202;-79
2020/12/23 00:45:05;;;;;;;11.75;6.38;;;;;16.20;101171.00;;;;5088035;28;20572;-79
2020/12/23 00:47:32;;;;;;;8.75;5.32;;;;;16.20;101173.00;;;;5087285;28;20233;-79
2020/12/23 00:50:00;;;;;;;7.47;5.18;;;;;16.20;101170.00;;;;5087937;28;20202;-79
2020/12/23 00:52:26;;;;;;;9.43;5.85;;;;;16.20;101167.00;;;;5088352;28;20190;-79
2020/12/23 00:54:53;;;;;;;10.18;5.82;;;;;16.20;101167.00;;;;5087713;28;20217;-79
2020/12/23 00:57:20;;;;;;;8.50;5.65;;;;;16.20;101164.00;;;;5088379;28;20267;-79
2020/12/23 00:59:46;;;;;;;6.78;5.50;;;;;16.20;101162.00;;;;5086102;28;20225;-79
2020/12/23 01:02:13;;;;;;;10.43;5.63;;;;;16.20;101161.00;;;;5088327;28;20198;-79
2020/12/23 01:04:40;;;;;;;8.43;5.55;;;;;16.20;101155.00;;;;5086965;28;20214;-79
2020/12/23 01:07:07;;;;;;;8.55;5.97;;;;;16.20;101147.00;;;;5088134;28;20237;-79
2020/12/23 01:09:34;;;;;;;7.82;5.18;;;;;16.20;101147.00;;;;5087165;28;20224;-78
2020/12/23 01:12:01;;;;;;;7.22;5.13;;;;;16.20;101154.00;;;;5087755;28;20935;-79
2020/12/23 01:14:27;;;;;;;7.55;5.47;;;;;16.20;101159.00;;;;5088152;28;20198;-79
2020/12/23 01:16:54;;;;;;;6.85;4.97;;;;;16.20;101150.00;;;;5087677;28;20194;-79
2020/12/23 01:19:21;;;;;;;9.60;6.00;;;;;16.20;101137.00;;;;5087391;28;20240;-79
2020/12/23 01:21:48;;;;;;;8.48;5.30;;;;;16.20;101141.00;;;;5089706;28;20198;-79
2020/12/23 01:24:15;;;;;;;8.13;6.07;;;;;16.20;101153.00;;;;5092442;28;20236;-79
2020/12/23 01:26:42;;;;;;;8.75;5.75;;;;;16.20;101156.00;;;;5091217;28;20218;-79
2020/12/23 01:29:08;;;;;;;10.02;6.15;;;;;16.30;101153.00;;;;5091185;28;20186;-79
2020/12/23 01:31:35;;;;;;;8.70;5.57;;;;;16.30;101146.00;;;;5091419;28;20617;-79
2020/12/23 01:34:02;;;;;;;8.90;6.03;;;;;16.30;101147.00;;;;5091789;28;20205;-79
2020/12/23 01:36:29;;;;;;;10.15;6.90;;;;;16.20;101145.00;;;;5091013;28;20209;-79
2020/12/23 01:38:55;;;;;;;8.15;6.10;;;;;16.30;101139.00;;;;5091549;28;20198;-79
2020/12/23 01:41:23;;;;;;;9.88;6.03;;;;;16.30;101147.00;;;;5091456;28;20587;-79
2020/12/23 01:43:54;;;;;;;8.98;5.72;;;;;16.20;101143.00;;;;5091593;28;20667;-79
2020/12/23 01:46:30;;;;;;;9.02;6.18;;;;;16.20;101135.00;;;;5091586;28;20275;-79
2020/12/23 01:48:58;;;;;;;11.20;7.05;;;;;16.30;101131.00;;;;5091432;28;20278;-79
2020/12/23 01:51:26;;;;;;;8.23;5.95;;;;;16.30;101131.00;;;;5091348;28;20202;-79
2020/12/23 01:53:53;;;;;;;7.70;5.95;;;;;16.30;101128.00;;;;5091232;28;20230;-79
2020/12/23 01:56:20;;;;;;;8.00;5.45;;;;;16.30;101129.00;;;;5091407;28;20289;-79
2020/12/23 01:58:48;;;;;;;9.55;6.30;;;;;16.30;101123.00;;;;5080694;28;20851;-79
2020/12/23 02:01:19;;;;;;;10.07;6.00;;;;;16.30;101110.00;;;;5091156;28;20250;-79
2020/12/23 02:03:46;;;;;;;9.50;6.25;;;;;16.30;101099.00;;;;5089929;28;20214;-80
2020/12/23 02:06:13;;;;;;;8.98;6.10;;;;;16.30;101094.00;;;;5091230;28;20603;-79
2020/12/23 02:08:41;;;;;;;8.68;5.90;;;;;16.30;101109.00;;;;5090485;28;20205;-79
2020/12/23 02:11:10;;;;;;;8.13;6.05;;;;;16.30;101107.00;;;;5090924;28;20209;-79
2020/12/23 02:13:38;;;;;;;10.30;6.30;;;;;16.30;101103.00;;;;5089994;28;20285;-79
2020/12/23 02:16:06;;;;;;;10.30;6.15;;;;;16.30;101100.00;;;;5090917;28;20272;-79
2020/12/23 02:18:33;;;;;;;10.68;7.25;;;;;16.30;101101.00;;;;5089932;28;20598;-79
2020/12/23 02:21:00;;;;;;;10.88;6.82;;;;;16.30;101100.00;;;;5090611;28;20206;-79
2020/12/23 02:23:28;;;;;;;12.23;6.57;;;;;16.30;101112.00;;;;5091025;28;20664;-79
2020/12/23 02:25:55;;;;;;;9.35;6.03;;;;;16.40;101106.00;;;;5090630;28;20221;-79
2020/12/23 02:28:22;;;;;;;10.18;7.07;;;;;16.40;101093.00;;;;5090282;28;20196;-79
2020/12/23 02:30:50;;;;;;;11.02;6.75;;;;;16.40;101078.00;;;;5090366;28;20202;-79
2020/12/23 02:33:17;;;;;;;10.25;7.10;;;;;16.40;101077.00;;;;5090168;28;20206;-79
2020/12/23 02:35:43;;;;;;;12.30;6.78;;;;;16.40;101062.00;;;;5089834;28;20202;-79
2020/12/23 02:38:10;;;;;;;10.57;6.90;;;;;16.40;101058.00;;;;5090748;28;20237;-80
2020/12/23 02:40:38;;;;;;;11.48;8.20;;;;;16.40;101062.00;;;;5089716;28;20547;-79
2020/12/23 02:43:04;;;;;;;10.75;7.63;;;;;16.40;101049.00;;;;5090390;28;20523;-79
2020/12/23 02:45:31;;;;;;;13.60;7.57;;;;;16.40;101060.00;;;;5090571;28;20198;-79
2020/12/23 02:47:58;;;;;;;12.27;8.07;;;;;16.40;101059.00;;;;5090318;28;20206;-79
2020/12/23 02:50:25;;;;;;;10.98;7.25;;;;;16.40;101064.00;;;;5090567;28;20213;-79
2020/12/23 02:52:51;;;;;;;15.50;8.43;;;;;16.40;101075.00;;;;5090030;28;20210;-79
2020/12/23 02:55:18;;;;;;;13.02;7.65;;;;;16.40;101069.00;;;;5089551;28;20703;-79
2020/12/23 02:57:46;;;;;;;10.38;7.45;;;;;16.40;101073.00;;;;5089478;28;20267;-79
2020/12/23 03:00:12;;;;;;;13.27;7.90;;;;;16.40;101076.00;;;;5090022;28;20230;-79
2020/12/23 03:02:39;;;;;;;12.60;7.38;;;;;16.40;101066.00;;;;5089079;28;20255;-79
2020/12/23 03:05:06;;;;;;;13.20;7.18;;;;;16.50;101065.00;;;;5089741;28;20242;-79
2020/12/23 03:07:33;;;;;;;12.85;7.38;;;;;16.50;101050.00;;;;5089208;28;20287;-79
2020/12/23 03:10:01;;;;;;;16.27;8.20;;;;;16.50;101051.00;;;;5090133;28;20210;-79
2020/12/23 03:12:28;;;;;;;11.65;7.75;;;;;16.50;101048.00;;;;5089894;28;20221;-79
2020/12/23 03:14:56;;;;;;;17.38;8.07;;;;;16.50;101044.00;;;;5089702;28;20198;-79
2020/12/23 03:17:22;;;;;;;16.48;7.47;;;;;16.50;101047.00;;;;5089380;28;20217;-80
2020/12/23 03:19:49;;;;;;;13.93;7.75;;;;;16.50;101045.00;;;;5089504;28;20275;-79
2020/12/23 03:22:16;;;;;;;15.13;7.28;;;;;16.50;101041.00;;;;5089580;28;20194;-79
2020/12/23 03:24:42;;;;;;;11.95;7.80;;;;;16.60;101034.00;;;;5088885;28;20198;-79
2020/12/23 03:27:09;;;;;;;11.82;7.32;;;;;16.60;101030.00;;;;5089137;28;20218;-79
2020/12/23 03:29:36;;;;;;;14.38;8.27;;;;;16.60;101026.00;;;;5088976;28;20247;-79
2020/12/23 03:32:04;;;;;;;14.07;7.80;;;;;16.60;101033.00;;;;5089750;28;20255;-79
2020/12/23 03:34:30;;;;;;;12.68;7.50;;;;;16.60;101021.00;;;;5088704;28;20210;-80
2020/12/23 03:36:57;;;;;;;12.02;7.85;;;;;16.60;101016.00;;;;5088977;28;20250;-79
2020/12/23 03:39:24;;;;;;;14.00;8.20;;;;;16.60;101014.00;;;;5089452;28;20198;-79
2020/12/23 03:41:51;;;;;;;11.80;7.47;;;;;16.60;101008.00;;;;5088372;28;20202;-79
2020/12/23 03:44:17;;;;;;;13.60;8.32;;;;;16.60;101015.00;;;;5089409;28;20202;-79
2020/12/23 03:46:44;;;;;;;13.23;7.70;;;;;16.60;100992.00;;;;5088096;28;20218;-79
2020/12/23 03:49:11;;;;;;;15.68;9.43;;;;;16.60;100996.00;;;;5089109;28;20244;-79
2020/12/23 03:51:38;;;;;;;15.18;10.07;;;;;16.60;101000.00;;;;5088771;28;20194;-79
2020/12/23 03:54:05;;;;;;;13.77;8.02;;;;;16.60;101002.00;;;;5089173;28;20625;-79
2020/12/23 03:56:32;;;;;;;15.38;8.02;;;;;16.70;101005.00;;;;5088215;28;20620;-79
2020/12/23 03:58:58;;;;;;;17.30;8.77;;;;;16.70;101004.00;;;;5077537;28;20198;-79
2020/12/23 04:01:25;;;;;;;15.43;10.15;;;;;16.70;101004.00;;;;5075244;28;20198;-79
2020/12/23 04:03:52;;;;;;;15.65;8.73;;;;;16.70;101003.00;;;;5088172;28;20218;-79
2020/12/23 04:06:19;;;;;;;13.25;8.73;;;;;16.70;100994.00;;;;5089059;28;20222;-79
2020/12/23 04:08:46;;;;;;;12.90;8.07;;;;;16.70;100980.00;;;;5088965;28;20210;-79
2020/12/23 04:11:13;;;;;;;15.10;9.43;;;;;16.70;100980.00;;;;5088211;28;20195;-79
2020/12/23 04:13:40;;;;;;;11.00;7.15;;;;;16.70;100978.00;;;;5089124;28;20206;-80
2020/12/23 04:16:06;;;;;;;14.68;9.25;;;;;16.70;100973.00;;;;5088818;28;20686;-79
2020/12/23 04:18:33;;;;;;;13.98;8.50;;;;;16.70;100972.00;;;;5087884;28;20190;-80
2020/12/23 04:21:00;;;;;;;13.95;8.70;;;;;16.80;100974.00;;;;5088776;28;20251;-80
2020/12/23 04:23:27;;;;;;;13.60;8.93;;;;;16.80;100974.00;;;;5089275;28;20198;-80
2020/12/23 04:25:54;;;;;;;13.30;8.50;;;;;16.80;100969.00;;;;5087835;28;20206;-80
2020/12/23 04:28:21;;;;;;;12.40;7.35;;;;;16.80;100965.00;;;;5088467;28;20202;-80
2020/12/23 04:30:47;;;;;;;14.77;9.15;;;;;16.80;100974.00;;;;5088268;28;20205;-80
2020/12/23 04:33:15;;;;;;;12.20;8.10;;;;;16.80;100973.00;;;;5067845;28;20191;-80
2020/12/23 04:35:41;;;;;;;14.00;8.93;;;;;16.80;100976.00;;;;5068416;28;20526;-80
2020/12/23 04:38:08;;;;;;;13.90;8.88;;;;;16.80;100977.00;;;;5087319;28;20206;-80
2020/12/23 04:40:39;;;;;;;10.20;7.03;;;;;16.80;100991.00;;;;5088160;28;20206;-80
2020/12/23 04:43:08;;;;;;;12.10;8.35;;;;;16.90;100980.00;;;;5088124;28;20256;-80
2020/12/23 04:45:35;;;;;;;13.25;8.07;;;;;16.90;100976.00;;;;5087818;28;20671;-80
2020/12/23 04:48:03;;;;;;;12.27;8.27;;;;;16.90;100970.00;;;;5088367;28;20202;-80
2020/12/23 04:50:33;;;;;;;11.25;7.93;;;;;16.90;100971.00;;;;5088248;28;20583;-80
2020/12/23 04:53:00;;;;;;;13.02;8.32;;;;;16.90;100962.00;;;;5088079;28;20194;-80
2020/12/23 04:55:27;;;;;;;14.00;8.52;;;;;16.90;100959.00;;;;5087331;28;20205;-80
2020/12/23 04:57:57;;;;;;;12.25;8.13;;;;;16.90;100951.00;;;;5087290;28;20228;-80
2020/12/23 05:00:26;;;;;;;12.80;9.00;;;;;16.90;100946.00;;;;5088120;28;20225;-81
2020/12/23 05:02:53;;;;;;;11.57;8.02;;;;;16.90;100941.00;;;;5087081;28;20202;-80
2020/12/23 05:05:20;;;;;;;10.73;7.57;;;;;17.00;100939.00;;;;5088191;28;20267;-80
2020/12/23 05:07:48;;;;;;;10.50;7.93;;;;;17.00;100928.00;;;;5087631;28;20754;-80
2020/12/23 05:10:15;;;;;;;10.05;6.70;;;;;17.00;100930.00;;;;5087948;28;20244;-81
2020/12/23 05:12:42;;;;;;;10.10;7.40;;;;;17.00;100931.00;;;;5087217;28;20206;-81
2020/12/23 05:15:09;;;;;;;11.02;7.78;;;;;17.00;100926.00;;;;5088036;28;20752;-81
2020/12/23 05:17:36;;;;;;;9.45;6.75;;;;;17.00;100923.00;;;;5086638;28;20233;-81
2020/12/23 05:20:06;;;;;;;8.80;6.68;;;;;17.00;100925.00;;;;5087205;28;21058;-81
2020/12/23 05:22:34;;;;;;;12.30;7.15;;;;;17.00;100923.00;;;;5087012;28;20209;-80
2020/12/23 05:25:01;;;;;;;9.38;6.78;;;;;17.00;100920.00;;;;5087473;28;20197;-81
2020/12/23 05:27:31;;;;;;;9.68;7.18;;;;;17.00;100911.00;;;;5088345;28;20588;-81
2020/12/23 05:29:57;;;;;;;9.48;6.82;;;;;17.00;100910.00;;;;5087399;28;20187;-81
2020/12/23 05:32:26;;;;;;;9.00;6.53;;;;;17.00;100907.00;;;;5087512;28;20663;-80
2020/12/23 05:34:57;;;;;;;10.60;7.13;;;;;17.00;100900.00;;;;5088014;28;20195;-80
2020/12/23 05:37:24;;;;;;;8.73;6.22;;;;;17.00;100896.00;;;;5087701;28;20576;-81
2020/12/23 05:39:51;;;;;;;9.05;6.50;;;;;17.00;100892.00;;;;5086495;28;20413;-80
2020/12/23 05:42:19;;;;;;;8.20;6.18;;;;;17.00;100888.00;;;;5087179;28;20571;-81
2020/12/23 05:44:51;;;;;;;8.25;5.97;;;;;17.00;100877.00;;;;5086934;28;20202;-81
2020/12/23 05:47:21;;;;;;;7.78;5.13;;;;;17.00;100881.00;;;;5086626;28;20787;-81
2020/12/23 05:49:49;;;;;;;9.38;6.30;;;;;17.00;100875.00;;;;5087602;28;20198;-81
2020/12/23 05:52:17;;;;;;;7.90;5.60;;;;;17.10;100871.00;;;;5087240;28;20659;-81
2020/12/23 05:54:45;;;;;;;7.88;5.93;;;;;17.10;100872.00;;;;5085790;28;21055;-81
2020/12/23 05:57:11;;;;;;;6.88;5.18;;;;;17.10;100874.00;;;;5088397;28;20198;-81
2020/12/23 05:59:38;;;;;;;8.27;5.43;;;;;17.10;100880.00;;;;5069860;28;20231;-81
2020/12/23 06:02:07;;;;;;;5.97;4.53;;;;;17.10;100878.00;;;;5086188;28;20676;-81
2020/12/23 06:04:35;;;;;;;6.97;4.97;;;;;17.10;100875.00;;;;5086451;28;20240;-81
2020/12/23 06:07:06;;;;;;;6.63;5.00;;;;;17.10;100874.00;;;;5087017;28;20222;-81
2020/12/23 06:09:38;;;;;;;6.35;4.63;;;;;17.10;100868.00;;;;5090362;28;20198;-81
2020/12/23 06:12:16;;;;;;;6.28;4.60;;;;;17.00;100867.00;;;;5071469;28;20218;-81
2020/12/23 06:14:52;;;;;;;6.68;5.18;;;;;17.10;100874.00;;;;5089049;28;20239;-81
2020/12/23 06:17:20;;;;;;;5.45;4.03;;;;;17.10;100874.00;;;;5090652;28;20263;-81
2020/12/23 06:19:49;;;;;;;4.40;3.65;;;;;17.10;100871.00;;;;5090188;28;20205;-81
2020/12/23 06:22:17;;;;;;;5.53;4.10;;;;;17.10;100861.00;;;;5090953;28;20205;-81
2020/12/23 06:24:45;;;;;;;5.05;3.40;;;;;17.10;100861.00;;;;5089644;28;20202;-81
2020/12/23 06:27:12;;;;;;;6.32;4.20;;;;;17.20;100868.00;;;;5090711;28;20233;-81
2020/12/23 06:29:41;;;;;;;4.55;3.60;;;;;17.20;100860.00;;;;5090432;28;20569;-81
2020/12/23 06:32:09;;;;;;;4.80;3.72;;;;;17.20;100854.00;;;;5091035;28;20206;-81
2020/12/23 06:34:38;;;;;;;6.18;3.97;;;;;17.20;100855.00;;;;5090425;28;20198;-81
2020/12/23 06:37:20;;;;;;;4.35;3.58;;;;;17.10;100848.00;;;;5090882;28;20202;-81
2020/12/23 06:39:47;;;;;;;4.50;3.50;;;;;17.20;100852.00;;;;5090143;28;20198;-81
2020/12/23 06:42:28;;;;;;;5.30;3.72;;;;;17.10;100833.00;;;;5089984;28;20733;-80
2020/12/23 06:45:10;;;;;;;4.82;3.50;;;;;17.10;100830.00;;;;5089734;28;20210;-80
2020/12/23 06:47:38;;;;;;;4.78;4.05;;;;;17.20;100838.00;;;;5087719;28;20249;-80
2020/12/23 06:50:21;;;;;;;4.53;3.97;;;;;17.20;100835.00;;;;5090816;28;20195;-80
2020/12/23 06:52:49;;;;;;;4.93;4.15;;;;;17.20;100833.00;;;;5069669;28;20198;-81
2020/12/23 06:55:17;;;;;;;4.65;3.85;;;;;17.20;100844.00;;;;5080685;28;20203;-81
2020/12/23 06:57:55;;;;;;;5.72;3.85;;;;;17.20;100844.00;;;;5087718;28;20690;-81
2020/12/23 07:00:36;;;;;;;5.30;4.10;;;;;17.20;100844.00;;;;5089803;28;20707;-81
2020/12/23 07:03:05;;;;;;;4.72;3.55;;;;;17.20;100838.00;;;;5083123;28;20481;-80
2020/12/23 07:05:47;;;;;;;4.43;3.72;;;;;17.20;100838.00;;;;5089346;28;20873;-81
2020/12/23 07:08:16;;;;;;;4.88;3.85;;;;;17.30;100830.00;;;;5088366;28;20222;-81
2020/12/23 07:10:46;;;;;;;4.53;3.72;;;;;17.30;100835.00;;;;5077938;28;20209;-80
2020/12/23 07:13:15;;;;;;;4.70;3.70;;;;;17.30;100845.00;;;;5087750;28;20238;-81
2020/12/23 07:15:51;;;;;;;4.97;4.07;;;;;17.30;100844.00;;;;5089022;28;20206;-81
2020/12/23 07:18:20;;;;;;;4.82;3.75;;;;;17.30;100848.00;;;;5088955;28;20193;-81
2020/12/23 07:20:48;;;;;;;4.95;4.22;;;;;17.30;100839.00;;;;5088668;28;20202;-80
2020/12/23 07:23:17;;;;;;;4.82;4.00;;;;;17.30;100851.00;;;;5083348;28;20199;-81
2020/12/23 07:25:47;;;;;;;5.03;3.70;;;;;17.30;100846.00;;;;5088667;28;20205;-81
2020/12/23 07:28:17;;;;;;;4.78;4.05;;;;;17.30;100835.00;;;;5088650;28;20222;-79
2020/12/23 07:30:45;;;;;;;4.43;3.85;;;;;17.40;100855.00;;;;5076196;28;20285;-80
2020/12/23 07:33:15;;;;;;;5.32;4.18;;;;;17.40;100839.00;;;;5086397;28;20206;-81
2020/12/23 07:35:46;;;;;;;4.60;4.00;;;;;17.40;100834.00;;;;5086049;28;20198;-81
2020/12/23 07:38:13;;;;;;;4.35;3.85;;;;;17.40;100835.00;;;;5089132;28;20198;-81
2020/12/23 07:40:42;;;;;;;4.25;3.80;;;;;17.40;100839.00;;;;5088511;28;20201;-81
2020/12/23 07:43:09;;;;;;;4.47;4.07;;;;;17.40;100837.00;;;;5088974;28;20198;-81
2020/12/23 07:45:37;;;;;;;4.10;3.70;;;;;17.40;100822.00;;;;5087491;28;20223;-81
2020/12/23 07:48:06;;;;;;;4.13;3.70;;;;;17.40;100831.00;;;;5089136;28;20237;-80
2020/12/23 07:50:35;;;;;;;5.43;4.93;;;;;17.40;100827.00;;;;5088388;28;20206;-81
2020/12/23 07:53:13;;;;;;;4.65;4.25;;;;;17.40;100833.00;;;;5088333;28;20243;-80
2020/12/23 07:55:42;;;;;;;4.90;3.88;;;;;17.40;100833.00;;;;5087809;28;20207;-81
2020/12/23 07:58:09;;;;;;;4.53;4.03;;;;;17.50;100830.00;;;;5089118;28;20198;-81
2020/12/23 08:00:37;;;;;;;4.95;4.03;;;;;17.50;100828.00;;;;5086358;28;20234;-81
2020/12/23 08:03:04;;;;;;;4.07;3.67;;;;;17.50;100825.00;;;;5088890;28;20202;-81
2020/12/23 08:05:31;;;;;;;4.30;3.88;;;;;17.50;100822.00;;;;5088843;28;20553;-81
2020/12/23 08:07:58;;;;;;;4.72;4.18;;;;;17.50;100810.00;;;;5088100;28;20222;-82
2020/12/23 08:10:25;;;;;;;3.90;3.50;;;;;17.60;100821.00;;;;5082764;28;20202;-82
2020/12/23 08:12:55;;;;;;;4.57;4.18;;;;;17.60;100829.00;;;;5071825;28;20198;-81
2020/12/23 08:15:22;;;;;;;4.25;3.85;;;;;17.60;100825.00;;;;5086360;28;20198;-81
2020/12/23 08:17:58;;;;;;;4.15;3.75;;;;;17.60;100820.00;;;;5087981;28;20209;-81
2020/12/23 08:20:25;;;;;;;3.83;3.53;;;;;17.70;100825.00;;;;5088398;28;20651;-81
2020/12/23 08:22:51;;;;;;;3.90;3.50;;;;;17.60;100830.00;;;;5086885;28;20223;-81
2020/12/23 08:25:19;;;;;;;4.10;3.70;;;;;17.60;100836.00;;;;5088549;28;20259;-81
2020/12/23 08:27:48;;;;;;;3.83;3.50;;;;;17.60;100829.00;;;;5086692;28;20222;-80
2020/12/23 08:30:19;;;;;;;3.65;3.33;;;;;17.60;100828.00;;;;5087845;28;20194;-80
2020/12/23 08:32:53;;;;;;;3.47;3.17;;;;;17.60;100828.00;;;;5087971;28;20202;-79
2020/12/23 08:35:20;;;;;;;3.50;3.08;;;;;17.60;100830.00;;;;5087803;28;20198;-81
2020/12/23 08:37:47;;;;;;;3.72;3.42;;;;;17.70;100823.00;;;;5087354;28;20202;-81
2020/12/23 08:40:16;;;;;;;4.38;3.63;;;;;17.60;100828.00;;;;5088592;28;20676;-81
2020/12/23 08:42:51;;;;;;;4.18;3.78;;;;;17.60;100821.00;;;;5085600;28;20278;-82
2020/12/23 08:45:23;;;;;;;4.53;3.53;;;;;17.60;100824.00;;;;5087691;28;20288;-80
2020/12/23 08:47:51;;;;;;;3.67;3.38;;;;;17.70;100816.00;;;;5086964;28;20737;-83
2020/12/23 08:50:19;;;;;;;3.45;3.15;;;;;17.70;100818.00;;;;5087989;28;20240;-82
2020/12/23 08:52:47;;;;;;;3.72;3.42;;;;;17.70;100817.00;;;;5086500;28;20273;-83
2020/12/23 08:55:15;;;;;;;4.15;3.72;;;;;17.70;100826.00;;;;5088553;28;20235;-82
2020/12/23 08:57:43;;;;;;;4.03;3.63;;;;;17.70;100825.00;;;;5086597;28;20190;-82
2020/12/23 09:00:16;;;;;;;4.20;3.83;;;;;17.70;100829.00;;;;5088394;28;20222;-82
2020/12/23 09:02:45;;;;;;;4.25;3.85;;;;;17.80;100828.00;;;;5087752;28;20247;-82
2020/12/23 09:05:22;;;;;;;4.68;4.20;;;;;17.70;100828.00;;;;5086726;28;20699;-82
2020/12/23 09:08:02;;;;;;;4.57;4.13;;;;;17.80;100828.00;;;;5087457;28;20221;-81
2020/12/23 09:10:29;;;;;;;4.32;3.92;;;;;17.80;100832.00;;;;5085271;28;20194;-83
2020/12/23 09:13:05;;;;;;;4.53;4.13;;;;;17.70;100829.00;;;;5086875;28;20248;-83
2020/12/23 09:15:32;;;;;;;4.50;4.00;;;;;17.80;100824.00;;;;5087843;28;20284;-83
2020/12/23 09:18:07;;;;;;;4.53;3.92;;;;;17.80;100822.00;;;;5087986;28;20186;-83
2020/12/23 09:20:35;;;;;;;4.47;3.83;;;;;17.80;100820.00;;;;5087846;28;20186;-83
2020/12/23 09:23:03;;;;;;;3.70;3.22;;;;;17.80;100819.00;;;;5086992;28;20201;-83
2020/12/23 09:25:32;;;;;;;4.32;3.78;;;;;17.80;100814.00;;;;5087171;28;20226;-83
2020/12/23 09:28:08;;;;;;;3.83;3.47;;;;;17.80;100813.00;;;;5085513;28;20263;-83
2020/12/23 09:30:38;;;;;;;3.78;3.47;;;;;17.90;100815.00;;;;5084264;28;20209;-84
2020/12/23 09:33:07;;;;;;;4.10;3.72;;;;;17.90;100807.00;;;;5087246;28;20209;-84
2020/12/23 09:35:35;;;;;;;3.35;3.05;;;;;17.90;100812.00;;;;5084436;28;20218;-84
2020/12/23 09:38:06;;;;;;;3.58;3.28;;;;;17.90;100806.00;;;;5087502;28;20282;-84
2020/12/23 09:40:33;;;;;;;3.03;2.72;;;;;17.90;100814.00;;;;5089789;28;20197;-83
2020/12/23 09:43:00;;;;;;;3.15;2.85;;;;;18.00;100814.00;;;;5105693;28;20202;-83
2020/12/23 09:45:27;;;;;;;3.00;2.67;;;;;18.00;100808.00;;;;5092626;28;20285;-82
2020/12/23 09:47:54;;;;;;;2.67;2.47;;;;;18.00;100798.00;;;;5090845;28;20218;-82
2020/12/23 09:50:21;;;;;;;2.90;2.63;;;;;18.00;100796.00;;;;5101363;28;20647;-83
2020/12/23 09:52:48;;;;;;;2.15;1.95;;;;;18.00;100792.00;;;;5091234;28;20723;-82
2020/12/23 09:55:15;;;;;;;1.83;1.73;;;;;18.00;100791.00;;;;5092043;28;20201;-82
2020/12/23 09:57:41;;;;;;;2.38;1.95;;;;;18.00;100787.00;;;;5090714;28;20206;-81
2020/12/23 10:00:09;;;;;;;1.65;1.55;;;;;18.00;100782.00;;;;5091408;28;20218;-82
2020/12/23 10:02:35;;;;;;;2.10;1.90;;;;;18.10;100779.00;;;;5077467;28;20198;-83
2020/12/23 10:05:03;;;;;;;1.90;1.50;;;;;18.10;100771.00;;;;5087474;28;20210;-83
2020/12/23 10:07:30;;;;;;;1.85;1.63;;;;;18.10;100765.00;;;;5085508;28;20357;-84
2020/12/23 10:09:57;;;;;;;2.08;1.60;;;;;18.10;100762.00;;;;5084789;28;20197;-84
2020/12/23 10:12:24;;;;;;;2.13;1.73;;;;;18.10;100747.00;;;;5083423;28;20194;-84
2020/12/23 10:14:51;;;;;;;1.70;1.58;;;;;18.10;100748.00;;;;5092696;28;20607;-84
2020/12/23 10:17:18;;;;;;;1.40;1.20;;;;;18.10;100748.00;;;;5089120;28;20206;-82
2020/12/23 10:19:45;;;;;;;2.85;1.63;;;;;18.20;100746.00;;;;5090412;28;20264;-84
2020/12/23 10:22:11;;;;;;;2.03;1.58;;;;;18.20;100745.00;;;;5083338;28;20212;-86
2020/12/23 10:24:39;;;;;;;3.08;1.50;;;;;18.20;100732.00;;;;5089834;28;20201;-84
2020/12/23 10:27:06;;;;;;;1.20;1.10;;;;;18.20;100742.00;;;;5092926;28;20291;-85
2020/12/23 10:29:33;;;;;;;1.50;1.27;;;;;18.20;100742.00;;;;5079643;28;20203;-84
2020/12/23 10:32:00;;;;;;;1.67;1.27;;;;;18.20;100736.00;;;;5088582;28;20222;-85
2020/12/23 10:34:28;;;;;;;1.83;1.40;;;;;18.20;100737.00;;;;5089534;28;20206;-84
2020/12/23 10:36:55;;;;;;;2.35;1.35;;;;;18.20;100727.00;;;;5075112;28;20340;-84
2020/12/23 10:39:22;;;;;;;1.60;1.17;;;;;18.20;100712.00;;;;5088570;28;20669;-83
2020/12/23 10:41:53;;;;;;;1.35;1.25;;;;;18.10;100716.00;;;;5084911;28;20648;-84
2020/12/23 10:44:21;;;;;;;9.38;6.70;;;;;18.20;100716.00;;;;5094424;28;20199;-85
2020/12/23 10:46:48;;;;;;;6.05;5.00;;;;;18.20;100716.00;;;;5089122;28;20214;-84
2020/12/23 10:49:15;;;;;;;3.42;2.63;;;;;18.10;100703.00;;;;5089199;28;20308;-86
2020/12/23 10:51:41;;;;;;;2.15;1.70;;;;;18.10;100704.00;;;;5085858;28;20198;-88
2020/12/23 10:54:08;;;;;;;1.85;1.50;;;;;18.10;100700.00;;;;5092753;28;20195;-84
2020/12/23 10:56:35;;;;;;;1.40;1.13;;;;;18.10;100699.00;;;;5089934;28;20639;-87
2020/12/23 10:59:02;;;;;;;1.70;1.50;;;;;18.10;100702.00;;;;5089938;28;20648;-86
2020/12/23 11:01:29;;;;;;;1.33;1.20;;;;;18.10;100684.00;;;;5083246;28;20704;-89
2020/12/23 11:03:56;;;;;;;2.00;1.50;;;;;18.00;100689.00;;;;5090955;28;20198;-88
2020/12/23 11:06:23;;;;;;;1.70;1.23;;;;;18.00;100677.00;;;;5090217;28;20683;-88
2020/12/23 11:08:49;;;;;;;1.67;0.88;;;;;18.00;100670.00;;;;5087570;28;20596;-88
2020/12/23 11:11:16;;;;;;;1.00;0.82;;;;;18.00;100655.00;;;;5090835;28;20198;-87
2020/12/23 11:13:43;;;;;;;0.93;0.88;;;;;18.00;100649.00;;;;5090133;28;21531;-87
2020/12/23 11:16:14;;;;;;;1.20;1.02;;;;;18.00;100646.00;;;;5090953;28;20251;-87
2020/12/23 11:18:42;;;;;;;2.00;1.20;;;;;18.00;100642.00;;;;5088889;28;20194;-87
2020/12/23 11:21:09;;;;;;;1.40;1.17;;;;;18.00;100643.00;;;;5090449;28;20206;-87
2020/12/23 11:23:36;;;;;;;1.25;1.05;;;;;18.00;100629.00;;;;5088641;28;20203;-87
2020/12/23 11:26:03;;;;;;;0.88;0.88;;;;;17.90;100632.00;;;;5089844;28;20194;-88
2020/12/23 11:28:32;;;;;;;1.45;1.13;;;;;17.90;100628.00;;;;5086743;28;20222;-86
2020/12/23 11:31:00;;;;;;;1.10;1.00;;;;;17.90;100627.00;;;;5086924;28;20695;-85
2020/12/23 11:33:27;;;;;;;1.73;1.40;;;;;17.90;100631.00;;;;5083226;28;20204;-83
2020/12/23 11:35:55;;;;;;;3.55;1.17;;;;;17.90;100623.00;;;;5088121;28;20202;-83
2020/12/23 11:38:22;;;;;;;3.17;1.30;;;;;17.90;100623.00;;;;5090049;28;20194;-84
2020/12/23 11:40:49;;;;;;;1.33;1.10;;;;;17.90;100610.00;;;;5087011;28;20202;-83
2020/12/23 11:43:16;;;;;;;1.80;0.82;;;;;18.00;100613.00;;;;5087097;28;20198;-83
2020/12/23 11:45:42;;;;;;;0.90;0.77;;;;;18.00;100606.00;;;;5086379;28;20191;-82
2020/12/23 11:48:09;;;;;;;1.17;1.08;;;;;18.00;100596.00;;;;5085757;28;20236;-84
2020/12/23 11:50:37;;;;;;;7.35;1.50;;;;;18.00;100586.00;;;;5085336;28;20199;-83
2020/12/23 11:53:04;;;;;;;1.23;1.10;;;;;18.00;100573.00;;;;5087885;28;20615;-83
2020/12/23 11:55:31;;;;;;;1.30;1.20;;;;;18.00;100572.00;;;;5088594;28;20203;-82
2020/12/23 11:57:58;;;;;;;1.35;1.20;;;;;18.00;100550.00;;;;5089446;28;20574;-83
2020/12/23 12:00:25;;;;;;;1.10;1.00;;;;;18.00;100555.00;;;;5091302;28;20651;-83
2020/12/23 12:02:51;;;;;;;1.13;1.02;;;;;18.00;100554.00;;;;5092633;28;20203;-83
2020/12/23 12:05:18;;;;;;;1.15;0.95;;;;;18.00;100556.00;;;;5087971;28;20548;-83
2020/12/23 12:07:46;;;;;;;1.50;1.38;;;;;18.00;100554.00;;;;5088223;28;20229;-83
2020/12/23 12:10:13;;;;;;;2.60;1.05;;;;;18.00;100559.00;;;;5087702;28;20244;-83